createdAt,value
2023-02-19T00:03:52.462Z,95159.56
2023-02-19T00:08:55.045Z,95160.84
2023-02-19T00:14:01.440Z,95164.84
2023-02-19T00:19:05.595Z,95164.03
2023-02-19T00:24:08.587Z,95164.03
2023-02-19T00:29:16.440Z,95179.78
2023-02-19T00:34:21.767Z,95171.50
2023-02-19T00:39:26.820Z,95169.94
2023-02-19T00:44:29.042Z,95162.53
2023-02-19T00:49:30.983Z,95165.75
2023-02-19T00:54:32.900Z,95153.25
2023-02-19T00:59:36.954Z,95154.13
2023-02-19T01:04:38.936Z,95144.25
2023-02-19T01:09:42.968Z,95143.75
2023-02-19T01:14:45.227Z,95151.25
2023-02-19T01:19:47.861Z,95135.41
2023-02-19T01:24:49.812Z,95137.44
2023-02-19T01:29:51.801Z,95126.78
2023-02-19T01:34:53.906Z,95120.47
2023-02-19T01:39:55.820Z,95124.78
2023-02-19T01:45:38.415Z,95130.63
2023-02-19T01:50:50.718Z,95127.53
2023-02-19T01:55:57.480Z,95124.00
2023-02-19T02:01:03.878Z,95125.88
2023-02-19T02:06:09.787Z,95129.59
2023-02-19T02:11:12.651Z,95119.53
2023-02-19T02:16:20.742Z,95118.47
2023-02-19T02:21:53.646Z,95119.53
2023-02-19T02:27:16.261Z,95107.41
2023-02-19T02:32:33.846Z,95115.75
2023-02-19T02:37:38.669Z,95112.31
2023-02-19T02:42:41.468Z,95116.41
2023-02-19T02:47:56.393Z,95096.06
2023-02-19T02:53:28.357Z,95099.84
2023-02-19T02:58:30.744Z,95093.38
2023-02-19T03:03:36.093Z,95086.88
2023-02-19T03:08:42.203Z,95080.16
2023-02-19T03:14:03.182Z,95079.13
2023-02-19T03:19:21.854Z,95075.25
2023-02-19T03:24:56.244Z,95066.31
2023-02-19T03:30:00.548Z,95060.84
2023-02-19T03:35:07.475Z,95062.72
2023-02-19T03:40:10.271Z,95065.63
2023-02-19T03:45:12.320Z,95052.13
2023-02-19T03:50:25.284Z,95063.88
2023-02-19T03:55:37.874Z,95060.72
2023-02-19T04:00:50.983Z,95062.34
2023-02-19T04:05:56.785Z,95052.00
2023-02-19T04:11:00.258Z,95062.16
2023-02-19T04:16:10.937Z,95056.41
2023-02-19T04:21:13.703Z,95064.44
2023-02-19T04:26:16.515Z,95062.06
2023-02-19T04:31:18.579Z,95067.13
2023-02-19T04:36:20.643Z,95066.91
2023-02-19T04:41:22.556Z,95071.19
2023-02-19T04:46:24.710Z,95062.28
2023-02-19T04:51:26.647Z,95072.63
2023-02-19T04:56:28.626Z,95081.19
2023-02-19T05:01:30.703Z,95089.69
2023-02-19T05:06:32.784Z,95083.06
2023-02-19T05:11:34.885Z,95080.72
2023-02-19T05:16:36.988Z,95094.78
2023-02-19T05:21:42.578Z,95094.78
2023-02-19T05:26:45.576Z,95092.44
2023-02-19T05:31:49.064Z,95092.72
2023-02-19T05:36:51.175Z,95091.44
2023-02-19T05:41:53.178Z,95096.50
2023-02-19T05:46:55.175Z,95090.19
2023-02-19T05:51:57.173Z,95105.84
2023-02-19T05:56:59.141Z,95093.97
2023-02-19T06:02:01.061Z,95081.00
2023-02-19T06:07:05.291Z,95093.22
2023-02-19T06:12:08.254Z,95097.47
2023-02-19T06:17:10.230Z,95094.34
2023-02-19T06:22:14.971Z,95094.59
2023-02-19T06:27:17.140Z,95093.31
2023-02-19T06:32:19.279Z,95092.81
2023-02-19T06:37:21.347Z,95090.72
2023-02-19T06:42:23.344Z,95093.63
2023-02-19T06:47:25.573Z,95105.59
2023-02-19T06:52:27.986Z,95106.38
2023-02-19T06:57:30.093Z,95105.59
2023-02-19T07:02:32.159Z,95107.19
2023-02-19T07:07:34.253Z,95109.59
2023-02-19T07:12:36.433Z,95110.94
2023-02-19T07:17:38.421Z,95102.47
2023-02-19T07:22:41.866Z,95113.63
2023-02-19T07:27:43.835Z,95117.63
2023-02-19T07:32:46.040Z,95116.81
2023-02-19T07:37:48.147Z,95124.75
2023-02-19T07:42:50.208Z,95134.28
2023-02-19T07:47:52.235Z,95136.66
2023-02-19T07:52:54.240Z,95117.28
2023-02-19T07:57:58.366Z,95140.28
2023-02-19T08:03:00.579Z,95139.41
2023-02-19T08:08:02.704Z,95147.06
2023-02-19T08:13:20.737Z,95144.09
2023-02-19T08:18:25.139Z,95128.66
2023-02-19T08:23:27.986Z,95134.69
2023-02-19T08:28:30.616Z,95132.00
2023-02-19T08:33:32.929Z,95131.13
2023-02-19T08:38:36.600Z,95139.50
2023-02-19T08:43:39.005Z,95139.59
2023-02-19T08:48:41.420Z,95133.81
2023-02-19T08:53:43.460Z,95146.88
2023-02-19T08:58:45.896Z,95133.56
2023-02-19T09:03:47.882Z,95131.19
2023-02-19T09:08:49.812Z,95131.28
2023-02-19T09:13:51.899Z,95126.41
2023-02-19T09:18:57.448Z,95129.47
2023-02-19T09:23:59.543Z,95136.16
2023-02-19T09:29:01.569Z,95132.38
2023-02-19T09:34:03.560Z,95135.13
2023-02-19T09:39:07.930Z,95130.16
2023-02-19T09:44:09.933Z,95140.41
2023-02-19T09:49:21.324Z,95134.47
2023-02-19T09:54:26.159Z,95142.81
2023-02-19T09:59:35.378Z,95131.44
2023-02-19T10:04:39.270Z,95143.72
2023-02-19T10:09:42.597Z,95132.47
2023-02-19T10:14:48.174Z,95130.56
2023-02-19T10:19:51.573Z,95119.81
2023-02-19T10:24:55.131Z,95127.72
2023-02-19T10:29:58.211Z,95112.81
2023-02-19T10:35:16.515Z,95116.56
2023-02-19T10:40:36.637Z,95120.69
2023-02-19T10:45:50.500Z,95110.06
2023-02-19T10:50:58.252Z,95102.41
2023-02-19T10:56:38.745Z,95102.78
2023-02-19T11:01:59.249Z,95092.09
2023-02-19T11:07:17.134Z,95088.59
2023-02-19T11:12:26.249Z,95084.69
2023-02-19T11:17:30.118Z,95081.41
2023-02-19T11:22:38.498Z,95072.09
2023-02-19T11:28:07.231Z,95065.19
2023-02-19T11:33:27.652Z,95070.31
2023-02-19T11:38:30.250Z,95054.72
2023-02-19T11:43:48.948Z,95053.03
2023-02-19T11:49:14.363Z,95054.63
2023-02-19T11:54:38.099Z,95049.94
2023-02-19T12:00:15.794Z,95036.72
2023-02-19T12:05:29.782Z,95039.25
2023-02-19T12:10:50.256Z,95030.75
2023-02-19T12:16:12.567Z,95018.09
2023-02-19T12:21:39.307Z,95019.41
2023-02-19T12:26:59.759Z,95008.75
2023-02-19T12:32:24.583Z,95000.59
2023-02-19T12:37:38.477Z,94978.38
2023-02-19T12:43:06.845Z,94973.19
2023-02-19T12:48:20.865Z,94971.97
2023-02-19T12:53:38.752Z,94959.09
2023-02-19T12:58:51.260Z,94951.66
2023-02-19T13:04:11.861Z,94951.75
2023-02-19T13:09:18.711Z,94928.16
2023-02-19T13:14:34.898Z,94919.13
2023-02-19T13:19:38.308Z,94918.13
2023-02-19T13:24:42.219Z,94902.59
2023-02-19T13:29:45.894Z,94896.97
2023-02-19T13:35:01.077Z,94889.72
2023-02-19T13:40:25.532Z,94880.16
2023-02-19T13:45:42.090Z,94867.78
2023-02-19T13:50:44.196Z,94866.94
2023-02-19T13:55:52.769Z,94854.59
2023-02-19T14:00:55.993Z,94859.22
2023-02-19T14:06:01.297Z,94853.66
2023-02-19T14:11:03.328Z,94850.63
2023-02-19T14:16:05.280Z,94841.19
2023-02-19T14:21:16.309Z,94830.25
2023-02-19T14:26:18.710Z,94815.13
2023-02-19T14:31:31.866Z,94820.53
2023-02-19T14:36:33.893Z,94809.91
2023-02-19T14:41:38.839Z,94800.94
2023-02-19T14:46:53.444Z,94799.28
2023-02-19T14:51:59.629Z,94803.34
2023-02-19T14:57:02.565Z,94792.13
2023-02-19T15:02:21.262Z,94790.84
2023-02-19T15:07:26.286Z,94774.22
2023-02-19T15:12:35.375Z,94782.69
2023-02-19T15:17:42.042Z,94776.56
2023-02-19T15:22:53.986Z,94769.91
2023-02-19T15:27:55.962Z,94767.06
2023-02-19T15:32:59.758Z,94761.09
2023-02-19T15:38:01.760Z,94757.09
2023-02-19T15:43:03.877Z,94751.19
2023-02-19T15:48:14.764Z,94752.94
2023-02-19T15:53:23.363Z,94748.09
2023-02-19T15:59:02.135Z,94748.50
2023-02-19T16:04:04.875Z,94745.16
2023-02-19T16:09:07.293Z,94743.38
2023-02-19T16:14:31.644Z,94743.03
2023-02-19T16:19:47.546Z,94737.91
2023-02-19T16:24:51.623Z,94743.28
2023-02-19T16:29:53.638Z,94732.50
2023-02-19T16:34:55.615Z,94728.53
2023-02-19T16:40:11.260Z,94730.00
2023-02-19T16:45:13.400Z,94730.19
2023-02-19T16:50:17.336Z,94738.78
2023-02-19T16:55:19.141Z,94723.94
2023-02-19T17:00:27.247Z,94726.06
2023-02-19T17:05:31.479Z,94735.13
2023-02-19T17:10:33.710Z,94731.09
2023-02-19T17:15:35.737Z,94739.34
2023-02-19T17:20:38.744Z,94744.19
2023-02-19T17:25:40.874Z,94743.63
2023-02-19T17:30:43.042Z,94747.84
2023-02-19T17:35:45.612Z,94747.44
2023-02-19T17:40:47.517Z,94751.84
2023-02-19T17:45:49.442Z,94748.31
2023-02-19T17:50:52.397Z,94753.81
2023-02-19T17:55:54.585Z,94751.16
2023-02-19T18:00:56.717Z,94756.44
2023-02-19T18:05:58.824Z,94768.22
2023-02-19T18:11:01.073Z,94772.22
2023-02-19T18:16:03.055Z,94773.44
2023-02-19T18:21:09.283Z,94786.75
2023-02-19T18:26:11.640Z,94785.97
2023-02-19T18:31:14.305Z,94797.94
2023-02-19T18:36:16.465Z,94803.72
2023-02-19T18:41:21.045Z,94806.19
2023-02-19T18:46:23.797Z,94809.41
2023-02-19T18:51:26.005Z,94812.28
2023-02-19T18:56:29.697Z,94818.47
2023-02-19T19:01:31.832Z,94821.09
2023-02-19T19:06:35.885Z,94816.59
2023-02-19T19:11:38.517Z,94827.66
2023-02-19T19:16:41.032Z,94829.59
2023-02-19T19:21:43.137Z,94820.94
2023-02-19T19:26:46.775Z,94840.56
2023-02-19T19:31:54.413Z,94838.72
2023-02-19T19:36:56.464Z,94837.97
2023-02-19T19:41:58.462Z,94843.59
2023-02-19T19:47:00.361Z,94840.47
2023-02-19T19:52:02.393Z,94839.66
2023-02-19T19:57:04.572Z,94844.09
2023-02-19T20:02:07.698Z,94840.84
2023-02-19T20:07:10.127Z,94836.44
2023-02-19T20:12:12.920Z,94845.91
2023-02-19T20:17:15.292Z,94847.38
2023-02-19T20:22:17.258Z,94845.66
2023-02-19T20:27:20.700Z,94850.72
2023-02-19T20:32:22.957Z,94855.66
2023-02-19T20:37:24.940Z,94855.06
2023-02-19T20:42:26.920Z,94857.75
2023-02-19T20:47:28.833Z,94858.38
2023-02-19T20:52:30.926Z,94863.28
2023-02-19T20:57:32.943Z,94865.16
2023-02-19T21:02:35.150Z,94878.06
2023-02-19T21:07:37.309Z,94875.41
2023-02-19T21:12:39.497Z,94873.38
2023-02-19T21:17:44.951Z,94883.28
2023-02-19T21:22:47.065Z,94888.47
2023-02-19T21:27:49.277Z,94880.75
2023-02-19T21:32:51.465Z,94891.50
2023-02-19T21:37:53.448Z,94883.31
2023-02-19T21:42:55.516Z,94895.59
2023-02-19T21:47:58.286Z,94893.84
2023-02-19T21:53:01.474Z,94885.03
2023-02-19T21:58:03.739Z,94891.31
2023-02-19T22:03:05.973Z,94886.13
2023-02-19T22:08:07.939Z,94894.31
2023-02-19T22:13:10.239Z,94884.72
2023-02-19T22:18:14.580Z,94887.41
2023-02-19T22:23:16.562Z,94887.69
2023-02-19T22:28:21.478Z,94883.13
2023-02-19T22:33:23.685Z,94891.34
2023-02-19T22:38:25.664Z,94885.34
2023-02-19T22:43:27.634Z,94895.25
2023-02-19T22:48:31.467Z,94885.19
2023-02-19T22:53:33.537Z,94884.06
2023-02-19T22:58:36.146Z,94885.94
2023-02-19T23:03:58.530Z,94893.19
2023-02-19T23:09:08.998Z,94888.31
2023-02-19T23:14:12.879Z,94885.66
2023-02-19T23:19:15.672Z,94895.22
2023-02-19T23:24:19.262Z,94889.88
2023-02-19T23:29:25.159Z,94889.13
2023-02-19T23:34:27.583Z,94886.75
2023-02-19T23:39:29.841Z,94890.19
2023-02-19T23:44:32.009Z,94890.16
2023-02-19T23:49:34.120Z,94889.34
2023-02-19T23:54:36.133Z,94894.44
2023-02-19T23:59:38.331Z,94892.19
